createdAt,value
2016-04-25T00:00:06.356Z,0
2016-04-25T00:01:06.375Z,0
2016-04-25T00:02:06.377Z,0
2016-04-25T00:03:06.379Z,0
2016-04-25T00:04:06.398Z,0
2016-04-25T00:05:06.386Z,0
2016-04-25T00:06:06.388Z,0
2016-04-25T00:07:06.406Z,0
2016-04-25T00:08:06.424Z,0
2016-04-25T00:09:06.442Z,0
2016-04-25T00:10:06.430Z,0
2016-04-25T00:11:06.433Z,0
2016-04-25T00:12:07.154Z,0
2016-04-25T00:13:07.218Z,0
2016-04-25T00:14:06.518Z,0
2016-04-25T00:15:06.459Z,0
2016-04-25T00:16:06.477Z,0
2016-04-25T00:17:06.480Z,0
2016-04-25T00:18:06.482Z,0
2016-04-25T00:19:06.469Z,0
2016-04-25T00:20:15.081Z,0
2016-04-25T00:21:06.491Z,0
2016-04-25T00:22:06.539Z,0
2016-04-25T00:23:06.501Z,0
2016-04-25T00:24:06.535Z,0
2016-04-25T00:25:06.523Z,0
2016-04-25T00:26:06.540Z,0
2016-04-25T00:27:06.668Z,0
2016-04-25T00:28:06.578Z,0
2016-04-25T00:29:06.517Z,0
2016-04-25T00:30:06.537Z,0
2016-04-25T00:31:06.554Z,0
2016-04-25T00:32:06.589Z,0
2016-04-25T00:33:06.576Z,0
2016-04-25T00:34:06.562Z,0
2016-04-25T00:35:06.565Z,0
2016-04-25T00:36:06.583Z,0
2016-04-25T00:37:06.587Z,0
2016-04-25T00:38:06.589Z,0
2016-04-25T00:39:06.623Z,0
2016-04-25T00:40:06.610Z,0
2016-04-25T00:41:06.597Z,0
2016-04-25T00:42:06.474Z,0
2016-04-25T00:43:06.400Z,0
2016-04-25T00:44:06.652Z,0
2016-04-25T00:45:06.639Z,0
2016-04-25T00:46:06.641Z,0
2016-04-25T00:47:06.645Z,0
2016-04-25T00:48:06.647Z,0
2016-04-25T00:49:06.650Z,0
2016-04-25T00:50:06.668Z,0
2016-04-25T00:51:06.687Z,0
2016-04-25T00:52:06.673Z,0
2016-04-25T00:53:06.693Z,0
2016-04-25T00:54:06.679Z,0
2016-04-25T00:55:06.698Z,0
2016-04-25T00:56:06.684Z,0
2016-04-25T00:57:07.750Z,0
2016-04-25T00:58:07.127Z,0
2016-04-25T00:59:06.709Z,0
2016-04-25T01:00:06.711Z,0
2016-04-25T01:01:06.728Z,0
2016-04-25T01:02:06.731Z,0
2016-04-25T01:03:06.735Z,0
2016-04-25T01:04:06.737Z,0
2016-04-25T01:05:06.771Z,0
2016-04-25T01:06:06.758Z,0
2016-04-25T01:07:06.761Z,0
2016-04-25T01:08:06.795Z,0
2016-04-25T01:09:06.767Z,0
2016-04-25T01:10:06.784Z,0
2016-04-25T01:11:06.786Z,0
2016-04-25T01:12:06.883Z,0
2016-04-25T01:13:07.371Z,0
2016-04-25T01:14:06.811Z,0
2016-04-25T01:15:06.797Z,0
2016-04-25T01:16:06.816Z,0
2016-04-25T01:17:06.819Z,0
2016-04-25T01:18:06.822Z,0
2016-04-25T01:19:06.840Z,0
2016-04-25T01:20:06.843Z,0
2016-04-25T01:21:06.860Z,0
2016-04-25T01:22:06.880Z,0
2016-04-25T01:23:06.866Z,0
2016-04-25T01:24:06.853Z,0
2016-04-25T01:25:06.871Z,0
2016-04-25T01:26:06.859Z,0
2016-04-25T01:27:06.596Z,0
2016-04-25T01:28:06.896Z,0
2016-04-25T01:29:06.882Z,0
2016-04-25T01:30:06.901Z,0
2016-04-25T01:31:06.904Z,0
2016-04-25T01:32:06.922Z,0
2016-04-25T01:33:06.925Z,0
2016-04-25T01:34:06.912Z,0
2016-04-25T01:35:06.789Z,0
2016-04-25T01:36:06.933Z,0
2016-04-25T01:37:06.936Z,0
2016-04-25T01:38:06.938Z,0
2016-04-25T01:39:06.972Z,0
2016-04-25T01:40:06.975Z,0
2016-04-25T01:41:06.978Z,0
2016-04-25T01:42:07.995Z,0
2016-04-25T01:43:07.029Z,0
2016-04-25T01:44:07.016Z,0
2016-04-25T01:45:06.988Z,0
2016-04-25T01:46:06.975Z,0
2016-04-25T01:47:06.994Z,0
2016-04-25T01:48:06.996Z,0
2016-04-25T01:49:07.030Z,0
2016-04-25T01:50:07.017Z,0
2016-04-25T01:51:07.035Z,0
2016-04-25T01:52:07.054Z,0
2016-04-25T01:53:07.041Z,0
2016-04-25T01:54:07.044Z,0
2016-04-25T01:55:07.046Z,0
2016-04-25T01:56:07.065Z,0
2016-04-25T01:57:07.051Z,0
2016-04-25T01:58:07.257Z,0
2016-04-25T01:59:07.073Z,0
2016-04-25T02:00:07.090Z,0
2016-04-25T02:01:07.094Z,0
2016-04-25T02:02:07.096Z,0
2016-04-25T02:03:07.115Z,0
2016-04-25T02:04:07.101Z,0
2016-04-25T02:05:07.104Z,0
2016-04-25T02:06:07.107Z,0
2016-04-25T02:07:07.126Z,0
2016-04-25T02:08:07.128Z,0
2016-04-25T02:09:07.131Z,0
2016-04-25T02:10:07.149Z,0
2016-04-25T02:11:07.153Z,0
2016-04-25T02:12:07.139Z,0
2016-04-25T02:13:06.563Z,0
2016-04-25T02:14:07.160Z,0
2016-04-25T02:15:07.178Z,0
2016-04-25T02:16:07.181Z,0
2016-04-25T02:17:07.168Z,0
2016-04-25T02:18:07.171Z,0
2016-04-25T02:19:07.173Z,0
2016-04-25T02:20:07.191Z,0
2016-04-25T02:21:07.211Z,0
2016-04-25T02:22:07.213Z,0
2016-04-25T02:23:07.215Z,0
2016-04-25T02:24:07.233Z,0
2016-04-25T02:25:07.220Z,0
2016-04-25T02:26:07.239Z,0
2016-04-25T02:27:07.242Z,0
2016-04-25T02:28:08.322Z,0
2016-04-25T02:29:07.263Z,0
2016-04-25T02:30:07.249Z,0
2016-04-25T02:31:07.268Z,0
2016-04-25T02:32:07.287Z,0
2016-04-25T02:33:07.290Z,0
2016-04-25T02:34:07.293Z,0
2016-04-25T02:35:07.295Z,0
2016-04-25T02:36:07.281Z,0
2016-04-25T02:37:07.300Z,0
2016-04-25T02:38:07.317Z,0
2016-04-25T02:39:07.336Z,0
2016-04-25T02:40:07.324Z,0
2016-04-25T02:41:07.373Z,0
2016-04-25T02:42:07.329Z,0
2016-04-25T02:43:07.909Z,0
2016-04-25T02:44:07.334Z,0
2016-04-25T02:45:07.353Z,0
2016-04-25T02:46:07.356Z,0
2016-04-25T02:47:07.342Z,0
2016-04-25T02:48:07.377Z,0
2016-04-25T02:49:07.364Z,0
2016-04-25T02:50:07.382Z,0
2016-04-25T02:51:07.385Z,0
2016-04-25T02:52:07.434Z,0
2016-04-25T02:53:07.421Z,0
2016-04-25T02:54:07.408Z,0
2016-04-25T02:55:07.395Z,0
2016-04-25T02:56:07.414Z,0
2016-04-25T02:57:07.416Z,0
2016-04-25T02:58:07.169Z,0
2016-04-25T02:59:07.453Z,0
2016-04-25T03:00:07.440Z,0
2016-04-25T03:01:07.443Z,0
2016-04-25T03:02:07.445Z,0
2016-04-25T03:03:07.449Z,0
2016-04-25T03:04:07.451Z,0
2016-04-25T03:05:07.453Z,0
2016-04-25T03:06:07.472Z,0
2016-04-25T03:07:07.474Z,0
2016-04-25T03:08:07.476Z,0
2016-04-25T03:09:07.495Z,0
2016-04-25T03:10:07.498Z,0
2016-04-25T03:11:07.345Z,0
2016-04-25T03:12:07.519Z,0
2016-04-25T03:13:07.959Z,0
2016-04-25T03:14:07.525Z,0
2016-04-25T03:15:07.527Z,0
2016-04-25T03:16:07.545Z,0
2016-04-25T03:17:07.533Z,0
2016-04-25T03:18:07.550Z,0
2016-04-25T03:19:07.570Z,0
2016-04-25T03:20:07.572Z,0
2016-04-25T03:21:07.558Z,0
2016-04-25T03:22:07.561Z,0
2016-04-25T03:23:07.564Z,0
2016-04-25T03:24:07.598Z,0
2016-04-25T03:25:07.585Z,0
2016-04-25T03:26:07.588Z,0
2016-04-25T03:27:07.591Z,0
2016-04-25T03:28:07.874Z,0
2016-04-25T03:29:07.596Z,0
2016-04-25T03:30:07.598Z,0
2016-04-25T03:31:07.617Z,0
2016-04-25T03:32:07.636Z,0
2016-04-25T03:33:07.637Z,0
2016-04-25T03:34:07.626Z,0
2016-04-25T03:35:07.643Z,0
2016-04-25T03:36:07.646Z,0
2016-04-25T03:37:07.649Z,0
2016-04-25T03:38:07.667Z,0
2016-04-25T03:39:07.670Z,0
2016-04-25T03:40:07.672Z,0
2016-04-25T03:41:07.675Z,0
2016-04-25T03:42:07.693Z,0
2016-04-25T03:43:07.681Z,0
2016-04-25T03:44:07.714Z,0
2016-04-25T03:45:07.701Z,0
2016-04-25T03:46:07.704Z,0
2016-04-25T03:47:07.707Z,0
2016-04-25T03:48:07.707Z,0
2016-04-25T03:49:07.709Z,0
2016-04-25T03:50:07.744Z,0
2016-04-25T03:51:07.747Z,0
2016-04-25T03:52:07.749Z,0
2016-04-25T03:53:07.736Z,0
2016-04-25T03:54:07.739Z,0
2016-04-25T03:55:07.757Z,0
2016-04-25T03:56:07.775Z,0
2016-04-25T03:57:07.763Z,0
2016-04-25T03:58:08.859Z,0
2016-04-25T03:59:07.861Z,0
2016-04-25T04:00:07.801Z,0
2016-04-25T04:01:07.804Z,0
2016-04-25T04:02:07.808Z,0
2016-04-25T04:03:07.826Z,0
2016-04-25T04:04:07.828Z,0
2016-04-25T04:05:07.815Z,0
2016-04-25T04:06:07.834Z,0
2016-04-25T04:07:07.821Z,0
2016-04-25T04:08:07.823Z,0
2016-04-25T04:09:07.873Z,0
2016-04-25T04:10:07.845Z,0
2016-04-25T04:11:07.848Z,0
2016-04-25T04:12:07.865Z,0
2016-04-25T04:13:08.102Z,0
2016-04-25T04:14:07.870Z,0
2016-04-25T04:15:07.874Z,0
2016-04-25T04:16:07.907Z,0
2016-04-25T04:17:07.895Z,0
2016-04-25T04:18:07.897Z,0
2016-04-25T04:19:07.900Z,0
2016-04-25T04:20:07.903Z,0
2016-04-25T04:21:07.905Z,0
2016-04-25T04:22:07.956Z,0
2016-04-25T04:23:07.926Z,0
2016-04-25T04:24:07.929Z,0
2016-04-25T04:25:07.931Z,0
2016-04-25T04:26:07.934Z,0
2016-04-25T04:27:07.936Z,0
2016-04-25T04:28:08.628Z,5
2016-04-25T04:29:07.724Z,5
2016-04-25T04:30:07.961Z,5
2016-04-25T04:31:07.994Z,5
2016-04-25T04:32:07.997Z,5
2016-04-25T04:33:07.984Z,5
2016-04-25T04:34:07.988Z,5
2016-04-25T04:35:07.990Z,10
2016-04-25T04:36:07.993Z,10
2016-04-25T04:37:08.010Z,10
2016-04-25T04:38:08.029Z,10
2016-04-25T04:39:08.032Z,10
2016-04-25T04:40:08.034Z,10
2016-04-25T04:41:08.053Z,10
2016-04-25T04:42:08.056Z,15
2016-04-25T04:43:07.934Z,15
2016-04-25T04:44:08.045Z,15
2016-04-25T04:45:08.064Z,20
2016-04-25T04:46:08.050Z,20
2016-04-25T04:47:08.070Z,20
2016-04-25T04:48:08.087Z,20
2016-04-25T04:49:08.090Z,20
2016-04-25T04:50:08.092Z,25
2016-04-25T04:51:08.080Z,25
2016-04-25T04:52:08.083Z,25
2016-04-25T04:53:08.101Z,30
2016-04-25T04:54:08.103Z,30
2016-04-25T04:55:08.122Z,35
2016-04-25T04:56:08.124Z,35
2016-04-25T04:57:08.127Z,35
2016-04-25T04:58:08.614Z,40
2016-04-25T04:59:08.007Z,40
2016-04-25T05:00:08.135Z,45
2016-04-25T05:01:08.169Z,45
2016-04-25T05:02:08.156Z,45
2016-04-25T05:03:08.174Z,60
2016-04-25T05:04:08.177Z,70
2016-04-25T05:05:08.180Z,65
2016-04-25T05:06:08.183Z,80
2016-04-25T05:07:08.169Z,75
2016-04-25T05:08:08.188Z,90
2016-04-25T05:09:08.206Z,110
2016-04-25T05:10:08.224Z,125
2016-04-25T05:11:08.227Z,95
2016-04-25T05:12:08.230Z,90
2016-04-25T05:13:08.690Z,120
2016-04-25T05:14:09.002Z,105
2016-04-25T05:15:08.362Z,100
2016-04-25T05:16:08.408Z,75
2016-04-25T05:17:08.471Z,75
2016-04-25T05:18:08.495Z,80
2016-04-25T05:19:08.514Z,75
2016-04-25T05:20:08.532Z,90
2016-04-25T05:21:08.551Z,90
2016-04-25T05:22:08.585Z,110
2016-04-25T05:23:08.595Z,105
2016-04-25T05:24:08.604Z,120
2016-04-25T05:25:08.628Z,110
2016-04-25T05:26:08.652Z,110
2016-04-25T05:27:08.660Z,85
2016-04-25T05:28:08.196Z,85
2016-04-25T05:29:09.185Z,75
2016-04-25T05:30:08.674Z,65
2016-04-25T05:31:08.680Z,70
2016-04-25T05:32:08.699Z,85
2016-04-25T05:33:08.734Z,100
2016-04-25T05:34:08.706Z,125
2016-04-25T05:35:08.709Z,135
2016-04-25T05:36:08.713Z,130
2016-04-25T05:37:08.732Z,150
2016-04-25T05:38:08.752Z,150
2016-04-25T05:39:08.754Z,135
2016-04-25T05:40:08.742Z,125
2016-04-25T05:41:08.745Z,95
2016-04-25T05:42:08.764Z,90
2016-04-25T05:43:09.016Z,95
2016-04-25T05:44:09.113Z,110
2016-04-25T05:45:08.772Z,115
2016-04-25T05:46:08.789Z,125
2016-04-25T05:47:08.808Z,140
2016-04-25T05:48:08.811Z,135
2016-04-25T05:49:08.814Z,135
2016-04-25T05:50:08.817Z,95
2016-04-25T05:51:08.819Z,80
2016-04-25T05:52:08.837Z,70
2016-04-25T05:53:08.856Z,70
2016-04-25T05:54:08.843Z,70
2016-04-25T05:55:08.860Z,65
2016-04-25T05:56:08.849Z,65
2016-04-25T05:57:08.851Z,65
2016-04-25T05:58:08.963Z,60
2016-04-25T05:59:09.872Z,65
2016-04-25T06:00:08.874Z,70
2016-04-25T06:01:08.877Z,60
2016-04-25T06:02:08.895Z,50
2016-04-25T06:03:08.899Z,55
2016-04-25T06:04:08.916Z,55
2016-04-25T06:05:08.918Z,75
2016-04-25T06:06:08.922Z,80
2016-04-25T06:07:08.924Z,75
2016-04-25T06:08:08.959Z,60
2016-04-25T06:09:08.946Z,55
2016-04-25T06:10:08.948Z,50
2016-04-25T06:11:08.967Z,55
2016-04-25T06:12:08.953Z,55
2016-04-25T06:13:10.050Z,60
2016-04-25T06:14:08.662Z,55
2016-04-25T06:15:08.978Z,65
2016-04-25T06:16:08.995Z,60
2016-04-25T06:17:08.998Z,55
2016-04-25T06:18:09.017Z,60
2016-04-25T06:19:09.019Z,85
2016-04-25T06:20:09.006Z,110
2016-04-25T06:21:09.009Z,100
2016-04-25T06:22:09.027Z,90
2016-04-25T06:23:09.031Z,135
2016-04-25T06:24:09.034Z,160
2016-04-25T06:25:09.052Z,210
2016-04-25T06:26:09.055Z,120
2016-04-25T06:27:09.042Z,205
2016-04-25T06:28:11.232Z,305
2016-04-25T06:29:11.063Z,145
2016-04-25T06:30:09.144Z,360
2016-04-25T06:31:09.100Z,420
2016-04-25T06:32:09.086Z,435
2016-04-25T06:33:09.105Z,385
2016-04-25T06:34:09.108Z,405
2016-04-25T06:35:09.110Z,415
2016-04-25T06:36:09.129Z,425
2016-04-25T06:37:09.131Z,475
2016-04-25T06:38:09.133Z,515
2016-04-25T06:39:09.137Z,565
2016-04-25T06:40:09.154Z,650
2016-04-25T06:41:09.174Z,670
2016-04-25T06:42:09.176Z,635
2016-04-25T06:43:10.866Z,630
2016-04-25T06:44:09.759Z,705
2016-04-25T06:45:09.185Z,695
2016-04-25T06:46:09.187Z,615
2016-04-25T06:47:09.205Z,625
2016-04-25T06:48:09.207Z,730
2016-04-25T06:49:09.211Z,670
2016-04-25T06:50:09.228Z,800
2016-04-25T06:51:09.232Z,730
2016-04-25T06:52:09.250Z,640
2016-04-25T06:53:09.253Z,655
2016-04-25T06:54:09.255Z,680
2016-04-25T06:55:09.290Z,670
2016-04-25T06:56:09.292Z,585
2016-04-25T06:57:09.295Z,660
2016-04-25T06:58:09.609Z,580
2016-04-25T06:59:08.894Z,455
2016-04-25T07:00:09.303Z,630
2016-04-25T07:01:09.321Z,670
2016-04-25T07:02:09.323Z,570
2016-04-25T07:03:09.341Z,595
2016-04-25T07:04:09.344Z,610
2016-04-25T07:05:09.363Z,510
2016-04-25T07:06:09.366Z,630
2016-04-25T07:07:09.384Z,420
2016-04-25T07:08:09.402Z,190
2016-04-25T07:09:09.389Z,615
2016-04-25T07:10:09.408Z,685
2016-04-25T07:11:09.394Z,515
2016-04-25T07:12:09.413Z,300
2016-04-25T07:13:09.807Z,195
2016-04-25T07:14:09.887Z,185
2016-04-25T07:15:09.437Z,190
2016-04-25T07:16:09.440Z,175
2016-04-25T07:17:09.457Z,170
2016-04-25T07:18:09.445Z,170
2016-04-25T07:19:09.463Z,160
2016-04-25T07:20:09.466Z,160
2016-04-25T07:21:09.484Z,160
2016-04-25T07:22:09.502Z,170
2016-04-25T07:23:09.520Z,165
2016-04-25T07:24:09.523Z,165
2016-04-25T07:25:09.510Z,165
2016-04-25T07:26:09.529Z,170
2016-04-25T07:27:09.531Z,170
2016-04-25T07:28:09.862Z,170
2016-04-25T07:29:10.381Z,170
2016-04-25T07:30:09.539Z,165
2016-04-25T07:31:09.558Z,165
2016-04-25T07:32:09.561Z,160
2016-04-25T07:33:09.564Z,160
2016-04-25T07:34:09.581Z,165
2016-04-25T07:35:09.584Z,175
2016-04-25T07:36:09.603Z,165
2016-04-25T07:37:09.605Z,165
2016-04-25T07:38:09.592Z,155
2016-04-25T07:39:09.610Z,150
2016-04-25T07:40:09.630Z,160
2016-04-25T07:41:09.616Z,150
2016-04-25T07:42:09.478Z,170
2016-04-25T07:43:09.668Z,125
2016-04-25T07:44:09.749Z,100
2016-04-25T07:45:09.657Z,100
2016-04-25T07:46:09.521Z,85
2016-04-25T07:47:09.663Z,70
2016-04-25T07:48:09.526Z,60
2016-04-25T07:49:09.684Z,60
2016-04-25T07:50:09.687Z,55
2016-04-25T07:51:09.549Z,45
2016-04-25T07:52:09.707Z,35
2016-04-25T07:53:09.711Z,35
2016-04-25T07:54:09.713Z,35
2016-04-25T07:55:09.732Z,35
2016-04-25T07:56:09.751Z,35
2016-04-25T07:57:09.753Z,45
2016-04-25T07:58:09.755Z,50
2016-04-25T07:59:09.946Z,70
2016-04-25T08:00:09.776Z,110
2016-04-25T08:01:09.795Z,135
2016-04-25T08:02:09.782Z,155
2016-04-25T08:03:09.784Z,155
2016-04-25T08:04:09.803Z,145
2016-04-25T08:05:09.806Z,125
2016-04-25T08:06:09.808Z,95
2016-04-25T08:07:09.827Z,95
2016-04-25T08:08:09.830Z,110
2016-04-25T08:09:09.847Z,120
2016-04-25T08:10:09.850Z,120
2016-04-25T08:11:09.838Z,105
2016-04-25T08:12:09.856Z,110
2016-04-25T08:13:09.851Z,100
2016-04-25T08:14:11.011Z,115
2016-04-25T08:15:09.873Z,125
2016-04-25T08:16:09.891Z,95
2016-04-25T08:17:09.893Z,75
2016-04-25T08:18:09.897Z,75
2016-04-25T08:19:09.899Z,95
2016-04-25T08:20:09.902Z,120
2016-04-25T08:21:09.904Z,130
2016-04-25T08:22:09.766Z,120
2016-04-25T08:23:09.926Z,115
2016-04-25T08:24:09.929Z,115
2016-04-25T08:25:09.978Z,125
2016-04-25T08:26:09.950Z,130
2016-04-25T08:27:09.984Z,120
2016-04-25T08:28:10.564Z,115
2016-04-25T08:29:15.177Z,115
2016-04-25T08:30:09.976Z,105
2016-04-25T08:31:09.995Z,100
2016-04-25T08:32:10.013Z,105
2016-04-25T08:33:10.000Z,105
2016-04-25T08:34:14.783Z,110
2016-04-25T08:35:09.865Z,105
2016-04-25T08:36:10.149Z,130
2016-04-25T08:37:10.042Z,135
2016-04-25T08:38:10.044Z,125
2016-04-25T08:39:11.969Z,120
2016-04-25T08:40:10.066Z,135
2016-04-25T08:41:10.120Z,150
2016-04-25T08:42:10.091Z,135
2016-04-25T08:43:10.079Z,130
2016-04-25T08:44:12.346Z,130
2016-04-25T08:45:10.116Z,150
2016-04-25T08:46:10.102Z,145
2016-04-25T08:47:10.168Z,135
2016-04-25T08:48:10.123Z,125
2016-04-25T08:49:13.001Z,90
2016-04-25T08:50:10.145Z,75
2016-04-25T08:51:10.147Z,70
2016-04-25T08:52:10.197Z,85
2016-04-25T08:53:10.153Z,110
2016-04-25T08:54:11.889Z,95
2016-04-25T08:55:10.158Z,90
2016-04-25T08:56:10.192Z,75
2016-04-25T08:57:10.256Z,60
2016-04-25T08:58:10.213Z,50
2016-04-25T08:59:14.434Z,50
2016-04-25T09:00:10.219Z,90
2016-04-25T09:01:10.221Z,95
2016-04-25T09:02:10.239Z,100
2016-04-25T09:03:10.241Z,120
2016-04-25T09:04:12.010Z,135
2016-04-25T09:05:10.263Z,135
2016-04-25T09:06:10.250Z,115
2016-04-25T09:07:10.268Z,135
2016-04-25T09:08:10.271Z,130
2016-04-25T09:09:12.336Z,105
2016-04-25T09:10:10.292Z,95
2016-04-25T09:11:10.294Z,105
2016-04-25T09:12:10.313Z,105
2016-04-25T09:13:10.299Z,100
2016-04-25T09:14:13.459Z,95
2016-04-25T09:15:10.321Z,90
2016-04-25T09:16:10.198Z,75
2016-04-25T09:17:10.361Z,75
2016-04-25T09:18:10.364Z,70
2016-04-25T09:19:13.586Z,75
2016-04-25T09:20:10.369Z,115
2016-04-25T09:21:10.388Z,115
2016-04-25T09:22:10.375Z,150
2016-04-25T09:23:10.378Z,155
2016-04-25T09:24:12.193Z,130
2016-04-25T09:25:10.399Z,145
2016-04-25T09:26:12.776Z,140
2016-04-25T09:27:10.420Z,105
2016-04-25T09:28:10.423Z,95
2016-04-25T09:29:12.597Z,95
2016-04-25T09:30:10.287Z,85
2016-04-25T09:31:10.462Z,85
2016-04-25T09:32:10.448Z,85
2016-04-25T09:33:10.468Z,95
2016-04-25T09:34:11.485Z,100
2016-04-25T09:35:10.487Z,95
2016-04-25T09:36:10.490Z,95
2016-04-25T09:37:10.478Z,85
2016-04-25T09:38:10.496Z,80
2016-04-25T09:39:12.717Z,80
2016-04-25T09:40:10.517Z,80
2016-04-25T09:41:10.504Z,80
2016-04-25T09:42:10.506Z,85
2016-04-25T09:43:10.509Z,75
2016-04-25T09:44:14.700Z,65
2016-04-25T09:45:10.389Z,65
2016-04-25T09:46:10.549Z,70
2016-04-25T09:47:10.567Z,65
2016-04-25T09:48:10.555Z,80
2016-04-25T09:49:10.572Z,85
2016-04-25T09:50:10.560Z,90
2016-04-25T09:51:10.594Z,95
2016-04-25T09:52:10.596Z,110
2016-04-25T09:53:10.615Z,100
2016-04-25T09:54:12.351Z,95
2016-04-25T09:55:10.604Z,90
2016-04-25T09:56:10.357Z,85
2016-04-25T09:57:10.610Z,80
2016-04-25T09:58:10.628Z,85
2016-04-25T09:59:17.865Z,80
2016-04-25T10:00:10.493Z,70
2016-04-25T10:01:10.652Z,70
2016-04-25T10:02:10.670Z,70
2016-04-25T10:03:10.688Z,70
2016-04-25T10:04:11.925Z,70
2016-04-25T10:05:10.678Z,75
2016-04-25T10:06:10.712Z,80
2016-04-25T10:07:10.684Z,80
2016-04-25T10:08:10.701Z,75
2016-04-25T10:09:11.189Z,75
2016-04-25T10:10:10.739Z,70
2016-04-25T10:11:10.726Z,65
2016-04-25T10:12:10.744Z,65
2016-04-25T10:13:10.746Z,60
2016-04-25T10:14:13.750Z,60
2016-04-25T10:15:10.737Z,60
2016-04-25T10:16:10.755Z,60
2016-04-25T10:17:10.758Z,70
2016-04-25T10:18:10.760Z,75
2016-04-25T10:19:12.060Z,80
2016-04-25T10:20:10.797Z,90
2016-04-25T10:21:10.800Z,105
2016-04-25T10:22:10.786Z,95
2016-04-25T10:23:10.820Z,90
2016-04-25T10:24:11.791Z,85
2016-04-25T10:25:10.826Z,70
2016-04-25T10:26:10.844Z,65
2016-04-25T10:27:10.847Z,85
2016-04-25T10:28:10.834Z,75
2016-04-25T10:29:14.649Z,75
2016-04-25T10:30:11.386Z,85
2016-04-25T10:31:10.880Z,90
2016-04-25T10:32:11.007Z,90
2016-04-25T10:33:10.602Z,120
2016-04-25T10:34:19.683Z,120
2016-04-25T10:35:13.260Z,120
2016-04-25T10:36:10.887Z,125
2016-04-25T10:37:10.764Z,120
2016-04-25T10:38:10.970Z,125
2016-04-25T10:39:11.223Z,120
2016-04-25T10:40:10.945Z,120
2016-04-25T10:41:10.932Z,115
2016-04-25T10:42:10.793Z,105
2016-04-25T10:43:10.936Z,100
2016-04-25T10:44:11.298Z,105
2016-04-25T10:45:10.973Z,110
2016-04-25T10:46:10.976Z,100
2016-04-25T10:47:10.822Z,115
2016-04-25T10:48:10.997Z,125
2016-04-25T10:49:13.219Z,110
2016-04-25T10:50:11.003Z,100
2016-04-25T10:51:11.005Z,100
2016-04-25T10:52:11.024Z,85
2016-04-25T10:53:11.041Z,75
2016-04-25T10:54:11.685Z,70
2016-04-25T10:55:11.031Z,60
2016-04-25T10:56:11.050Z,65
2016-04-25T10:57:11.068Z,55
2016-04-25T10:58:11.071Z,55
2016-04-25T10:59:13.573Z,60
2016-04-25T11:00:11.155Z,60
2016-04-25T11:01:11.079Z,65
2016-04-25T11:02:10.926Z,65
2016-04-25T11:03:11.099Z,70
2016-04-25T11:04:13.493Z,75
2016-04-25T11:05:11.121Z,85
2016-04-25T11:06:11.154Z,85
2016-04-25T11:07:11.126Z,85
2016-04-25T11:08:11.129Z,85
2016-04-25T11:09:13.616Z,80
2016-04-25T11:10:11.134Z,80
2016-04-25T11:11:11.137Z,75
2016-04-25T11:12:11.156Z,70
2016-04-25T11:13:11.158Z,70
2016-04-25T11:14:10.972Z,70
2016-04-25T11:15:11.070Z,70
2016-04-25T11:16:11.166Z,65
2016-04-25T11:17:11.169Z,70
2016-04-25T11:18:11.172Z,75
2016-04-25T11:19:11.190Z,75
2016-04-25T11:20:11.224Z,70
2016-04-25T11:21:11.195Z,65
2016-04-25T11:22:11.198Z,65
2016-04-25T11:23:11.232Z,65
2016-04-25T11:24:11.203Z,70
2016-04-25T11:25:11.221Z,65
2016-04-25T11:26:11.224Z,70
2016-04-25T11:27:11.227Z,70
2016-04-25T11:28:11.277Z,70
2016-04-25T11:29:10.702Z,70
2016-04-25T11:30:11.266Z,75
2016-04-25T11:31:11.285Z,75
2016-04-25T11:32:11.272Z,80
2016-04-25T11:33:11.259Z,85
2016-04-25T11:34:11.277Z,90
2016-04-25T11:35:11.279Z,95
2016-04-25T11:36:11.282Z,105
2016-04-25T11:37:11.301Z,105
2016-04-25T11:38:11.147Z,105
2016-04-25T11:39:11.321Z,105
2016-04-25T11:40:11.168Z,105
2016-04-25T11:41:11.311Z,105
2016-04-25T11:42:11.329Z,100
2016-04-25T11:43:11.348Z,105
2016-04-25T11:44:11.553Z,100
2016-04-25T11:45:11.353Z,100
2016-04-25T11:46:11.356Z,95
2016-04-25T11:47:11.255Z,90
2016-04-25T11:48:11.366Z,90
2016-04-25T11:49:11.374Z,85
2016-04-25T11:50:11.361Z,85
2016-04-25T11:51:11.614Z,85
2016-04-25T11:52:11.226Z,85
2016-04-25T11:53:11.390Z,80
2016-04-25T11:54:11.407Z,85
2016-04-25T11:55:11.395Z,85
2016-04-25T11:56:11.413Z,85
2016-04-25T11:57:11.416Z,90
2016-04-25T11:58:11.435Z,85
2016-04-25T11:59:12.624Z,85
2016-04-25T12:00:12.627Z,85
2016-04-25T12:01:11.442Z,85
2016-04-25T12:02:11.429Z,85
2016-04-25T12:03:11.292Z,85
2016-04-25T12:04:11.451Z,85
2016-04-25T12:05:11.453Z,90
2016-04-25T12:06:11.472Z,90
2016-04-25T12:07:11.458Z,85
2016-04-25T12:08:11.461Z,80
2016-04-25T12:09:11.464Z,75
2016-04-25T12:10:11.483Z,65
2016-04-25T12:11:11.500Z,60
2016-04-25T12:12:11.503Z,60
2016-04-25T12:13:11.506Z,65
2016-04-25T12:14:11.602Z,70
2016-04-25T12:15:11.386Z,70
2016-04-25T12:16:11.513Z,75
2016-04-25T12:17:11.532Z,80
2016-04-25T12:18:11.535Z,85
2016-04-25T12:19:11.538Z,85
2016-04-25T12:20:11.525Z,85
2016-04-25T12:21:11.558Z,85
2016-04-25T12:22:11.561Z,85
2016-04-25T12:23:11.564Z,85
2016-04-25T12:24:11.410Z,80
2016-04-25T12:25:11.569Z,80
2016-04-25T12:26:11.432Z,80
2016-04-25T12:27:11.574Z,80
2016-04-25T12:28:11.593Z,85
2016-04-25T12:29:11.612Z,85
2016-04-25T12:30:12.083Z,85
2016-04-25T12:31:11.617Z,85
2016-04-25T12:32:11.463Z,85
2016-04-25T12:33:11.623Z,80
2016-04-25T12:34:11.640Z,80
2016-04-25T12:35:11.628Z,75
2016-04-25T12:36:11.645Z,70
2016-04-25T12:37:11.648Z,65
2016-04-25T12:38:11.667Z,65
2016-04-25T12:39:11.669Z,65
2016-04-25T12:40:11.656Z,60
2016-04-25T12:41:11.706Z,55
2016-04-25T12:42:11.412Z,50
2016-04-25T12:43:11.539Z,45
2016-04-25T12:44:12.324Z,40
2016-04-25T12:45:11.295Z,35
2016-04-25T12:46:11.704Z,30
2016-04-25T12:47:11.708Z,25
2016-04-25T12:48:11.413Z,20
2016-04-25T12:49:11.727Z,20
2016-04-25T12:50:11.809Z,20
2016-04-25T12:51:11.749Z,20
2016-04-25T12:52:11.751Z,25
2016-04-25T12:53:11.754Z,30
2016-04-25T12:54:11.757Z,40
2016-04-25T12:55:11.774Z,50
2016-04-25T12:56:11.763Z,65
2016-04-25T12:57:11.770Z,70
2016-04-25T12:58:11.820Z,75
2016-04-25T12:59:11.463Z,85
2016-04-25T13:00:11.637Z,90
2016-04-25T13:01:11.796Z,95
2016-04-25T13:02:11.784Z,100
2016-04-25T13:03:11.801Z,100
2016-04-25T13:04:11.804Z,105
2016-04-25T13:05:11.807Z,100
2016-04-25T13:06:11.700Z,100
2016-04-25T13:07:11.828Z,95
2016-04-25T13:08:11.831Z,95
2016-04-25T13:09:11.850Z,90
2016-04-25T13:10:11.852Z,80
2016-04-25T13:11:11.870Z,70
2016-04-25T13:12:11.873Z,65
2016-04-25T13:13:11.875Z,55
2016-04-25T13:14:13.612Z,50
2016-04-25T13:15:12.662Z,50
2016-04-25T13:16:11.884Z,40
2016-04-25T13:17:11.902Z,30
2016-04-25T13:18:11.896Z,25
2016-04-25T13:19:11.898Z,15
2016-04-25T13:20:11.917Z,15
2016-04-25T13:21:11.935Z,15
2016-04-25T13:22:11.906Z,10
2016-04-25T13:23:11.909Z,10
2016-04-25T13:24:11.928Z,10
2016-04-25T13:25:11.930Z,10
2016-04-25T13:26:11.933Z,10
2016-04-25T13:27:11.951Z,10
2016-04-25T13:28:11.922Z,15
2016-04-25T13:29:12.347Z,20
2016-04-25T13:30:11.975Z,25
2016-04-25T13:31:11.978Z,25
2016-04-25T13:32:11.964Z,25
2016-04-25T13:33:11.967Z,30
2016-04-25T13:34:11.970Z,30
2016-04-25T13:35:11.989Z,30
2016-04-25T13:36:11.835Z,30
2016-04-25T13:37:12.009Z,30
2016-04-25T13:38:11.997Z,30
2016-04-25T13:39:12.030Z,30
2016-04-25T13:40:12.018Z,25
2016-04-25T13:41:12.021Z,20
2016-04-25T13:42:12.038Z,20
2016-04-25T13:43:12.026Z,25
2016-04-25T13:44:12.310Z,25
2016-04-25T13:45:11.813Z,20
2016-04-25T13:46:12.049Z,20
2016-04-25T13:47:12.051Z,20
2016-04-25T13:48:12.054Z,20
2016-04-25T13:49:12.057Z,20
2016-04-25T13:50:12.076Z,20
2016-04-25T13:51:12.094Z,20
2016-04-25T13:52:12.081Z,20
2016-04-25T13:53:12.099Z,25
2016-04-25T13:54:12.101Z,25
2016-04-25T13:55:12.120Z,25
2016-04-25T13:56:12.154Z,30
2016-04-25T13:57:12.125Z,30
2016-04-25T13:58:12.128Z,30
2016-04-25T13:59:13.147Z,30
2016-04-25T14:00:12.368Z,30
2016-04-25T14:01:12.137Z,30
2016-04-25T14:02:12.144Z,35
2016-04-25T14:03:12.163Z,35
2016-04-25T14:04:12.181Z,30
2016-04-25T14:05:12.168Z,30
2016-04-25T14:06:11.999Z,30
2016-04-25T14:07:12.188Z,25
2016-04-25T14:08:12.207Z,25
2016-04-25T14:09:12.210Z,25
2016-04-25T14:10:12.213Z,25
2016-04-25T14:11:12.215Z,25
2016-04-25T14:12:12.233Z,25
2016-04-25T14:13:12.235Z,25
2016-04-25T14:14:12.239Z,30
2016-04-25T14:15:11.835Z,30
2016-04-25T14:16:12.260Z,30
2016-04-25T14:17:12.184Z,35